createdAt,value
2023-01-15T00:04:26.590Z,7.54
2023-01-15T00:09:29.389Z,7.53
2023-01-15T00:14:33.979Z,7.69
2023-01-15T00:19:36.874Z,7.45
2023-01-15T00:24:53.618Z,7.48
2023-01-15T00:29:57.883Z,7.45
2023-01-15T00:35:00.711Z,7.68
2023-01-15T00:40:04.180Z,7.55
2023-01-15T00:45:11.222Z,7.45
2023-01-15T00:50:16.261Z,7.53
2023-01-15T00:55:19.077Z,7.22
2023-01-15T01:00:23.574Z,7.23
2023-01-15T01:05:26.404Z,7.26
2023-01-15T01:10:29.349Z,7.25
2023-01-15T01:15:36.023Z,7.36
2023-01-15T01:20:39.245Z,7.39
2023-01-15T01:25:42.022Z,7.41
2023-01-15T01:30:46.333Z,7.43
2023-01-15T01:35:49.918Z,7.40
2023-01-15T01:40:52.675Z,7.20
2023-01-15T01:45:57.718Z,7.40
2023-01-15T01:51:05.939Z,7.34
2023-01-15T01:56:09.881Z,7.26
2023-01-15T02:01:15.507Z,7.24
2023-01-15T02:06:18.931Z,7.51
2023-01-15T02:11:24.412Z,7.30
2023-01-15T02:16:36.585Z,7.20
2023-01-15T02:21:51.782Z,7.25
2023-01-15T02:27:13.180Z,7.24
2023-01-15T02:32:24.961Z,7.15
2023-01-15T02:37:31.265Z,7.22
2023-01-15T02:42:38.420Z,7.29
2023-01-15T02:47:44.823Z,7.39
2023-01-15T02:52:53.055Z,7.21
2023-01-15T02:58:04.263Z,7.22
2023-01-15T03:03:14.241Z,7.37
2023-01-15T03:08:17.155Z,7.20
2023-01-15T03:13:30.180Z,7.38
2023-01-15T03:18:38.325Z,7.43
2023-01-15T03:23:48.576Z,7.26
2023-01-15T03:28:53.888Z,7.29
2023-01-15T03:33:56.868Z,7.10
2023-01-15T03:39:00.982Z,7.17
2023-01-15T03:44:30.050Z,7.02
2023-01-15T03:49:43.589Z,6.92
2023-01-15T03:55:08.841Z,6.89
2023-01-15T04:00:19.913Z,6.97
2023-01-15T04:05:29.620Z,6.99
2023-01-15T04:10:33.477Z,6.97
2023-01-15T04:15:39.967Z,6.93
2023-01-15T04:20:43.092Z,6.95
2023-01-15T04:25:46.710Z,7.16
2023-01-15T04:30:51.344Z,7.00
2023-01-15T04:35:54.139Z,6.99
2023-01-15T04:41:14.433Z,7.03
2023-01-15T04:46:22.138Z,6.97
2023-01-15T04:51:25.119Z,6.92
2023-01-15T04:56:27.971Z,6.97
2023-01-15T05:01:32.314Z,6.95
2023-01-15T05:06:35.565Z,7.03
2023-01-15T05:11:39.451Z,6.95
2023-01-15T05:16:43.690Z,6.97
2023-01-15T05:21:46.734Z,6.96
2023-01-15T05:26:49.829Z,7.06
2023-01-15T05:31:54.119Z,6.77
2023-01-15T05:36:57.159Z,6.83
2023-01-15T05:42:02.487Z,6.86
2023-01-15T05:47:07.753Z,6.77
2023-01-15T05:52:10.572Z,6.64
2023-01-15T05:57:14.146Z,6.59
2023-01-15T06:02:18.404Z,6.76
2023-01-15T06:07:21.329Z,6.60
2023-01-15T06:12:24.192Z,6.65
2023-01-15T06:17:28.433Z,6.84
2023-01-15T06:22:31.275Z,7.00
2023-01-15T06:27:34.237Z,6.80
2023-01-15T06:32:38.491Z,6.99
2023-01-15T06:37:41.417Z,6.76
2023-01-15T06:43:02.014Z,6.98
2023-01-15T06:48:07.917Z,6.95
2023-01-15T06:53:10.779Z,7.08
2023-01-15T06:58:13.702Z,7.24
2023-01-15T07:03:18.029Z,7.08
2023-01-15T07:08:20.762Z,7.17
2023-01-15T07:13:23.555Z,7.16
2023-01-15T07:18:27.984Z,7.22
2023-01-15T07:23:30.788Z,7.29
2023-01-15T07:28:33.678Z,7.06
2023-01-15T07:33:37.896Z,7.13
2023-01-15T07:38:40.669Z,7.18
2023-01-15T07:44:12.795Z,7.03
2023-01-15T07:49:34.570Z,7.07
2023-01-15T07:54:37.697Z,7.25
2023-01-15T07:59:40.691Z,7.04
2023-01-15T08:04:47.943Z,7.15
2023-01-15T08:09:50.744Z,6.97
2023-01-15T08:15:10.733Z,7.02
2023-01-15T08:20:17.226Z,6.90
2023-01-15T08:25:22.671Z,6.95
2023-01-15T08:30:26.491Z,6.66
2023-01-15T08:35:30.905Z,6.67
2023-01-15T08:40:33.799Z,6.66
2023-01-15T08:45:36.638Z,6.58
2023-01-15T08:50:40.846Z,6.57
2023-01-15T08:55:44.824Z,6.40
2023-01-15T09:00:48.579Z,6.64
2023-01-15T09:05:52.915Z,6.60
2023-01-15T09:10:58.968Z,6.70
2023-01-15T09:16:03.232Z,6.66
2023-01-15T09:21:07.738Z,6.34
2023-01-15T09:26:27.533Z,6.62
2023-01-15T09:31:31.311Z,6.77
2023-01-15T09:36:36.499Z,7.07
2023-01-15T09:42:08.130Z,7.75
2023-01-15T09:47:15.650Z,7.27
2023-01-15T09:52:27.071Z,7.41
2023-01-15T09:57:32.067Z,7.74
2023-01-15T10:02:41.992Z,8.30
2023-01-15T10:07:57.173Z,8.37
2023-01-15T10:13:07.635Z,7.98
2023-01-15T10:18:16.842Z,8.05
2023-01-15T10:23:43.281Z,7.50
2023-01-15T10:29:10.932Z,7.57
2023-01-15T10:35:05.144Z,7.75
2023-01-15T10:40:29.765Z,7.73
2023-01-15T10:45:35.748Z,7.94
2023-01-15T10:50:39.572Z,7.56
2023-01-15T10:55:47.755Z,7.34
2023-01-15T11:00:56.153Z,7.68
2023-01-15T11:05:58.958Z,8.34
2023-01-15T11:11:17.210Z,7.92
2023-01-15T11:16:39.586Z,8.08
2023-01-15T11:21:44.027Z,7.99
2023-01-15T11:26:51.743Z,8.28
2023-01-15T11:31:54.629Z,7.56
2023-01-15T11:37:04.938Z,7.63
2023-01-15T11:42:43.654Z,7.41
2023-01-15T11:48:10.192Z,6.61
2023-01-15T11:53:18.939Z,6.98
2023-01-15T11:58:24.962Z,6.32
2023-01-15T12:03:32.060Z,5.77
2023-01-15T12:08:50.212Z,5.82
2023-01-15T12:14:04.468Z,5.57
2023-01-15T12:19:13.897Z,5.50
2023-01-15T12:24:31.893Z,5.72
2023-01-15T12:29:43.757Z,5.50
2023-01-15T12:34:52.944Z,5.67
2023-01-15T12:40:03.487Z,5.66
2023-01-15T12:45:16.933Z,6.04
2023-01-15T12:50:30.658Z,6.53
2023-01-15T12:55:38.726Z,6.81
2023-01-15T13:00:45.465Z,7.25
2023-01-15T13:05:51.715Z,7.59
2023-01-15T13:10:54.502Z,7.39
2023-01-15T13:16:09.404Z,7.19
2023-01-15T13:21:14.745Z,7.11
2023-01-15T13:26:33.667Z,7.17
2023-01-15T13:31:51.000Z,7.04
2023-01-15T13:36:56.458Z,7.41
2023-01-15T13:42:18.255Z,7.39
2023-01-15T13:47:26.572Z,7.28
2023-01-15T13:52:32.119Z,7.41
2023-01-15T13:57:37.596Z,7.25
2023-01-15T14:02:53.341Z,7.69
2023-01-15T14:07:56.299Z,7.50
2023-01-15T14:13:30.680Z,7.73
2023-01-15T14:19:01.665Z,7.31
2023-01-15T14:24:37.100Z,7.68
2023-01-15T14:30:07.318Z,7.85
2023-01-15T14:35:15.299Z,7.72
2023-01-15T14:40:24.845Z,7.66
2023-01-15T14:45:30.158Z,7.89
2023-01-15T14:50:39.381Z,7.55
2023-01-15T14:55:48.821Z,7.85
2023-01-15T15:00:55.893Z,7.64
2023-01-15T15:06:01.117Z,7.69
2023-01-15T15:11:27.770Z,7.45
2023-01-15T15:16:32.761Z,7.65
2023-01-15T15:21:40.169Z,7.39
2023-01-15T15:26:43.063Z,7.07
2023-01-15T15:31:49.355Z,6.96
2023-01-15T15:36:53.980Z,6.69
2023-01-15T15:42:17.795Z,6.19
2023-01-15T15:47:40.213Z,6.21
2023-01-15T15:52:46.271Z,6.31
2023-01-15T15:57:54.250Z,6.27
2023-01-15T16:02:57.271Z,6.13
2023-01-15T16:08:18.793Z,6.23
2023-01-15T16:13:26.223Z,6.11
2023-01-15T16:18:32.618Z,6.33
2023-01-15T16:23:36.789Z,5.87
2023-01-15T16:28:44.756Z,6.10
2023-01-15T16:33:48.438Z,5.72
2023-01-15T16:38:54.062Z,5.48
2023-01-15T16:43:59.194Z,5.59
2023-01-15T16:49:21.048Z,5.65
2023-01-15T16:54:47.598Z,5.45
2023-01-15T16:59:57.547Z,5.42
2023-01-15T17:05:00.453Z,5.64
2023-01-15T17:10:07.401Z,5.63
2023-01-15T17:15:36.729Z,5.54
2023-01-15T17:20:39.526Z,5.87
2023-01-15T17:25:43.635Z,5.89
2023-01-15T17:30:48.413Z,5.65
2023-01-15T17:35:53.059Z,6.16
2023-01-15T17:41:00.357Z,6.00
2023-01-15T17:46:03.422Z,6.16
2023-01-15T17:51:10.759Z,6.02
2023-01-15T17:56:32.691Z,6.21
2023-01-15T18:01:57.060Z,6.17
2023-01-15T18:07:01.564Z,6.15
2023-01-15T18:12:07.078Z,5.90
2023-01-15T18:17:11.525Z,6.32
2023-01-15T18:22:15.636Z,6.36
2023-01-15T18:27:19.804Z,6.56
2023-01-15T18:32:22.635Z,6.28
2023-01-15T18:37:25.577Z,6.53
2023-01-15T18:42:49.589Z,6.71
2023-01-15T18:47:52.361Z,6.76
2023-01-15T18:52:55.491Z,6.51
2023-01-15T18:57:59.931Z,6.31
2023-01-15T19:03:03.199Z,6.01
2023-01-15T19:08:06.078Z,6.19
2023-01-15T19:13:10.175Z,5.85
2023-01-15T19:18:30.545Z,5.92
2023-01-15T19:23:33.366Z,6.24
2023-01-15T19:28:37.642Z,6.21
2023-01-15T19:33:40.614Z,6.07
2023-01-15T19:38:43.513Z,6.08
2023-01-15T19:44:05.440Z,5.80
2023-01-15T19:49:33.352Z,5.88
2023-01-15T19:54:58.963Z,5.89
2023-01-15T20:00:03.344Z,5.53
2023-01-15T20:05:09.682Z,5.50
2023-01-15T20:10:14.921Z,5.61
2023-01-15T20:15:19.350Z,5.59
2023-01-15T20:20:22.298Z,5.44
2023-01-15T20:25:26.100Z,5.54
2023-01-15T20:30:30.547Z,5.80
2023-01-15T20:35:33.585Z,6.04
2023-01-15T20:40:36.614Z,5.96
2023-01-15T20:45:41.745Z,5.96
2023-01-15T20:51:00.557Z,5.90
2023-01-15T20:56:05.322Z,5.88
2023-01-15T21:01:11.022Z,6.16
2023-01-15T21:06:14.018Z,5.90
2023-01-15T21:11:18.333Z,6.15
2023-01-15T21:16:23.280Z,5.92
2023-01-15T21:21:26.157Z,5.99
2023-01-15T21:26:30.923Z,5.79
2023-01-15T21:31:35.381Z,5.80
2023-01-15T21:36:38.362Z,5.64
2023-01-15T21:41:59.200Z,5.53
2023-01-15T21:47:05.239Z,5.67
2023-01-15T21:52:10.205Z,5.52
2023-01-15T21:57:13.882Z,5.45
2023-01-15T22:02:21.789Z,5.70
2023-01-15T22:07:24.777Z,5.56
2023-01-15T22:12:27.579Z,5.86
2023-01-15T22:17:31.816Z,5.59
2023-01-15T22:22:36.505Z,5.73
2023-01-15T22:27:40.861Z,5.86
2023-01-15T22:32:45.231Z,5.72
2023-01-15T22:37:48.211Z,6.07
2023-01-15T22:42:50.973Z,6.05
2023-01-15T22:47:55.040Z,6.17
2023-01-15T22:52:57.782Z,6.24
2023-01-15T22:58:00.547Z,6.47
2023-01-15T23:03:05.955Z,6.07
2023-01-15T23:08:08.880Z,5.97
2023-01-15T23:13:11.894Z,6.07
2023-01-15T23:18:16.043Z,6.28
2023-01-15T23:23:18.899Z,6.23
2023-01-15T23:28:21.717Z,6.25
2023-01-15T23:33:25.933Z,6.38
2023-01-15T23:38:29.480Z,6.23
2023-01-15T23:43:49.503Z,6.26
2023-01-15T23:48:53.619Z,6.45
2023-01-15T23:53:56.501Z,6.25
2023-01-15T23:59:00.106Z,6.41
